createdAt,value
2023-03-02T00:00:32.918Z,58.20
2023-03-02T00:03:00.319Z,54.00
2023-03-02T00:05:28.486Z,47.07
2023-03-02T00:07:55.614Z,41.23
2023-03-02T00:10:22.740Z,49.67
2023-03-02T00:12:49.912Z,52.67
2023-03-02T00:15:17.078Z,55.00
2023-03-02T00:17:44.197Z,49.87
2023-03-02T00:20:12.128Z,46.33
2023-03-02T00:22:39.784Z,45.77
2023-03-02T00:25:07.168Z,47.87
2023-03-02T00:27:34.340Z,51.87
2023-03-02T00:30:01.609Z,51.80
2023-03-02T00:32:28.765Z,50.37
2023-03-02T00:34:55.979Z,53.27
2023-03-02T00:37:23.089Z,52.53
2023-03-02T00:39:51.991Z,48.17
2023-03-02T00:42:19.185Z,48.37
2023-03-02T00:44:46.318Z,47.80
2023-03-02T00:47:13.496Z,45.37
2023-03-02T00:49:40.651Z,44.73
2023-03-02T00:52:07.775Z,47.30
2023-03-02T00:54:34.888Z,48.33
2023-03-02T00:57:02.041Z,49.47
2023-03-02T00:59:29.216Z,44.83
2023-03-02T01:01:59.902Z,49.43
2023-03-02T01:04:46.315Z,50.23
2023-03-02T01:07:14.941Z,41.60
2023-03-02T01:09:42.397Z,47.83
2023-03-02T01:12:11.259Z,51.30
2023-03-02T01:14:42.300Z,50.63
2023-03-02T01:17:09.815Z,49.03
2023-03-02T01:19:37.199Z,50.73
2023-03-02T01:22:04.343Z,50.10
2023-03-02T01:24:32.246Z,49.60
2023-03-02T01:26:59.422Z,49.13
2023-03-02T01:29:26.567Z,46.73
2023-03-02T01:31:53.903Z,44.67
2023-03-02T01:34:21.153Z,45.63
2023-03-02T01:36:48.258Z,45.20
2023-03-02T01:39:16.027Z,43.30
2023-03-02T01:41:46.199Z,44.13
2023-03-02T01:44:31.913Z,43.53
2023-03-02T01:46:59.084Z,40.53
2023-03-02T01:49:26.221Z,41.53
2023-03-02T01:51:53.384Z,44.10
2023-03-02T01:54:23.107Z,45.83
2023-03-02T01:56:50.842Z,41.97
2023-03-02T01:59:18.922Z,43.13
2023-03-02T02:01:46.731Z,43.70
2023-03-02T02:04:14.268Z,47.37
2023-03-02T02:06:42.061Z,45.47
2023-03-02T02:09:10.383Z,44.37
2023-03-02T02:11:37.557Z,43.40
2023-03-02T02:14:04.780Z,43.00
2023-03-02T02:16:32.782Z,42.40
2023-03-02T02:19:00.102Z,41.30
2023-03-02T02:21:27.193Z,41.30
2023-03-02T02:24:03.494Z,45.13
2023-03-02T02:26:35.546Z,41.37
2023-03-02T02:29:14.588Z,44.33
2023-03-02T02:31:43.903Z,49.97
2023-03-02T02:34:31.318Z,50.63
2023-03-02T02:37:00.252Z,40.43
2023-03-02T02:39:29.281Z,40.60
2023-03-02T02:41:57.485Z,34.87
2023-03-02T02:44:24.671Z,41.07
2023-03-02T02:46:51.796Z,43.63
2023-03-02T02:49:18.949Z,48.33
2023-03-02T02:51:46.082Z,45.67
2023-03-02T02:54:13.190Z,44.27
2023-03-02T02:56:40.419Z,48.03
2023-03-02T02:59:24.149Z,46.33
2023-03-02T03:01:51.292Z,47.70
2023-03-02T03:04:19.342Z,50.57
2023-03-02T03:06:50.602Z,50.30
2023-03-02T03:09:17.802Z,53.87
2023-03-02T03:11:45.840Z,51.17
2023-03-02T03:14:14.092Z,52.43
2023-03-02T03:16:41.873Z,50.33
2023-03-02T03:19:12.740Z,52.70
2023-03-02T03:21:40.190Z,51.87
2023-03-02T03:24:07.590Z,51.23
2023-03-02T03:26:34.900Z,51.10
2023-03-02T03:29:02.102Z,53.27
2023-03-02T03:31:29.288Z,54.20
2023-03-02T03:33:56.480Z,55.30
2023-03-02T03:36:23.632Z,56.13
2023-03-02T03:38:50.836Z,56.97
2023-03-02T03:41:17.952Z,53.67
2023-03-02T03:43:45.069Z,59.33
2023-03-02T03:46:12.319Z,54.50
2023-03-02T03:48:39.603Z,55.50
2023-03-02T03:51:06.885Z,54.23
2023-03-02T03:53:34.067Z,49.50
2023-03-02T03:56:02.867Z,49.67
2023-03-02T03:58:30.414Z,49.50
2023-03-02T04:00:57.796Z,47.63
2023-03-02T04:03:25.505Z,48.17
2023-03-02T04:05:52.672Z,45.67
2023-03-02T04:08:19.996Z,43.80
2023-03-02T04:10:47.156Z,45.53
2023-03-02T04:13:14.502Z,41.83
2023-03-02T04:15:42.321Z,43.57
2023-03-02T04:18:09.495Z,48.97
2023-03-02T04:20:36.629Z,51.37
2023-03-02T04:23:03.797Z,50.40
2023-03-02T04:25:31.340Z,49.93
2023-03-02T04:27:58.538Z,52.37
2023-03-02T04:30:26.236Z,48.97
2023-03-02T04:32:53.472Z,48.07
2023-03-02T04:35:20.697Z,49.77
2023-03-02T04:37:47.922Z,47.17
2023-03-02T04:40:15.270Z,46.37
2023-03-02T04:42:44.610Z,45.87
2023-03-02T04:45:11.967Z,45.37
2023-03-02T04:47:39.114Z,43.47
2023-03-02T04:50:06.616Z,45.60
2023-03-02T04:52:33.805Z,43.23
2023-03-02T04:55:00.922Z,39.27
2023-03-02T04:57:28.064Z,41.93
2023-03-02T04:59:55.241Z,43.27
2023-03-02T05:02:22.479Z,43.07
2023-03-02T05:04:49.681Z,42.77
2023-03-02T05:07:16.909Z,40.20
2023-03-02T05:09:44.033Z,39.50
2023-03-02T05:12:11.161Z,36.90
2023-03-02T05:14:38.364Z,34.10
2023-03-02T05:17:05.486Z,35.03
2023-03-02T05:19:32.623Z,36.27
2023-03-02T05:21:59.860Z,33.13
2023-03-02T05:24:27.083Z,33.77
2023-03-02T05:26:54.205Z,31.60
2023-03-02T05:29:21.379Z,32.70
2023-03-02T05:31:48.674Z,30.70
2023-03-02T05:34:16.430Z,31.67
2023-03-02T05:36:43.725Z,34.87
2023-03-02T05:39:10.910Z,35.60
2023-03-02T05:41:38.160Z,38.90
2023-03-02T05:44:06.065Z,41.00
2023-03-02T05:46:33.501Z,44.43
2023-03-02T05:49:00.935Z,48.57
2023-03-02T05:51:28.337Z,48.97
2023-03-02T05:53:55.479Z,46.97
2023-03-02T05:56:22.663Z,50.07
2023-03-02T05:58:49.832Z,49.77
2023-03-02T06:01:16.962Z,48.33
2023-03-02T06:03:44.126Z,49.13
2023-03-02T06:06:14.137Z,49.60
2023-03-02T06:08:41.776Z,49.90
2023-03-02T06:11:09.135Z,51.43
2023-03-02T06:13:36.515Z,53.40
2023-03-02T06:16:03.847Z,55.30
2023-03-02T06:18:31.055Z,56.97
2023-03-02T06:20:58.954Z,58.03
2023-03-02T06:23:26.213Z,59.23
2023-03-02T06:25:53.405Z,62.23
2023-03-02T06:28:21.847Z,66.10
2023-03-02T06:30:49.283Z,69.90
2023-03-02T06:33:18.088Z,69.40
2023-03-02T06:35:45.372Z,79.13
2023-03-02T06:38:12.617Z,77.97
2023-03-02T06:40:39.794Z,80.30
2023-03-02T06:43:07.001Z,81.33
2023-03-02T06:45:34.253Z,85.30
2023-03-02T06:48:01.988Z,79.47
2023-03-02T06:50:29.272Z,67.73
2023-03-02T06:52:56.536Z,61.63
2023-03-02T06:55:23.671Z,61.30
2023-03-02T06:57:50.857Z,65.37
2023-03-02T07:00:25.864Z,59.07
2023-03-02T07:02:53.503Z,49.50
2023-03-02T07:05:20.631Z,44.33
2023-03-02T07:07:47.847Z,48.73
2023-03-02T07:10:15.060Z,42.87
2023-03-02T07:12:42.498Z,41.60
2023-03-02T07:15:14.209Z,49.43
2023-03-02T07:17:42.180Z,47.90
2023-03-02T07:20:09.846Z,45.27
2023-03-02T07:22:37.120Z,44.07
2023-03-02T07:25:04.382Z,41.03
2023-03-02T07:27:31.559Z,40.97
2023-03-02T07:29:58.692Z,30.83
2023-03-02T07:32:25.949Z,29.03
2023-03-02T07:34:53.459Z,27.40
2023-03-02T07:37:20.676Z,24.33
2023-03-02T07:39:49.032Z,23.03
2023-03-02T07:42:16.275Z,20.70
2023-03-02T07:44:43.466Z,17.73
2023-03-02T07:47:10.662Z,21.63
2023-03-02T07:49:37.860Z,22.27
2023-03-02T07:52:05.118Z,23.73
2023-03-02T07:54:32.279Z,21.33
2023-03-02T07:56:59.422Z,19.53
2023-03-02T07:59:28.356Z,19.70
2023-03-02T08:01:55.772Z,26.63
2023-03-02T08:04:22.930Z,32.20
2023-03-02T08:06:50.123Z,31.03
2023-03-02T08:09:17.324Z,22.60
2023-03-02T08:11:45.022Z,19.83
2023-03-02T08:14:12.138Z,18.80
2023-03-02T08:16:39.916Z,18.07
2023-03-02T08:19:07.641Z,18.17
2023-03-02T08:21:35.129Z,17.27
2023-03-02T08:24:02.423Z,16.33
2023-03-02T08:26:29.563Z,19.40
2023-03-02T08:28:56.751Z,18.87
2023-03-02T08:31:23.940Z,18.20
2023-03-02T08:33:51.146Z,19.43
2023-03-02T08:36:18.779Z,19.20
2023-03-02T08:38:46.020Z,17.77
2023-03-02T08:41:14.199Z,18.57
2023-03-02T08:43:41.365Z,20.90
2023-03-02T08:46:08.581Z,20.60
2023-03-02T08:48:35.758Z,22.43
2023-03-02T08:51:04.363Z,20.87
2023-03-02T08:53:32.225Z,24.43
2023-03-02T08:55:59.371Z,22.47
2023-03-02T08:58:26.545Z,22.00
2023-03-02T09:00:53.733Z,23.40
2023-03-02T09:03:21.020Z,22.30
2023-03-02T09:05:48.479Z,21.00
2023-03-02T09:08:15.650Z,20.53
2023-03-02T09:10:42.758Z,22.23
2023-03-02T09:13:09.949Z,21.90
2023-03-02T09:15:37.137Z,23.53
2023-03-02T09:18:04.320Z,21.07
2023-03-02T09:20:32.134Z,22.63
2023-03-02T09:22:59.387Z,21.40
2023-03-02T09:25:26.515Z,23.35
2023-03-02T09:27:53.701Z,22.13
2023-03-02T09:30:20.902Z,23.23
2023-03-02T09:32:49.140Z,19.77
2023-03-02T09:35:16.406Z,20.38
2023-03-02T09:37:44.611Z,21.48
2023-03-02T09:40:21.605Z,21.10
2023-03-02T09:43:07.456Z,19.52
2023-03-02T09:45:37.639Z,18.98
2023-03-02T09:48:07.589Z,17.55
2023-03-02T09:50:35.701Z,15.13
2023-03-02T09:53:02.833Z,14.90
2023-03-02T09:55:30.423Z,17.15
2023-03-02T09:57:57.591Z,17.88
2023-03-02T10:00:26.720Z,15.50
2023-03-02T10:02:56.231Z,15.05
2023-03-02T10:05:32.607Z,17.52
2023-03-02T10:07:59.773Z,13.88
2023-03-02T10:10:44.825Z,13.27
2023-03-02T10:13:17.192Z,10.75
2023-03-02T10:15:56.882Z,8.80
2023-03-02T10:18:39.505Z,11.35
2023-03-02T10:21:27.248Z,12.80
2023-03-02T10:23:54.549Z,13.60
2023-03-02T10:26:40.437Z,10.85
2023-03-02T10:29:26.125Z,14.40
2023-03-02T10:31:55.676Z,10.75
2023-03-02T10:34:24.153Z,12.50
2023-03-02T10:36:51.296Z,12.05
2023-03-02T10:39:18.463Z,11.63
2023-03-02T10:41:49.489Z,11.68
2023-03-02T10:44:16.688Z,9.02
2023-03-02T12:54:41.592Z,11.55
2023-03-02T12:57:14.401Z,12.50
2023-03-02T12:59:41.639Z,12.35
2023-03-02T13:02:11.666Z,13.00
2023-03-02T13:04:38.869Z,10.27
2023-03-02T13:07:06.251Z,10.77
2023-03-02T13:09:33.417Z,9.25
2023-03-02T13:12:00.576Z,9.00
2023-03-02T13:14:28.395Z,9.70
2023-03-02T13:16:56.496Z,9.65
2023-03-02T13:19:23.702Z,11.15
2023-03-02T13:21:50.905Z,11.15
2023-03-02T13:24:29.945Z,10.82
2023-03-02T13:26:58.371Z,9.25
2023-03-02T13:29:28.543Z,11.77
2023-03-02T13:31:55.830Z,10.35
2023-03-02T13:34:24.013Z,10.35
2023-03-02T13:36:51.270Z,9.43
2023-03-02T13:39:19.703Z,14.98
2023-03-02T13:41:59.738Z,9.13
2023-03-02T13:44:27.727Z,9.25
2023-03-02T13:46:54.965Z,11.73
2023-03-02T13:49:32.591Z,13.70
2023-03-02T13:52:02.518Z,9.85
2023-03-02T13:54:30.367Z,8.25
2023-03-02T13:56:57.857Z,10.20
2023-03-02T13:59:25.151Z,11.05
2023-03-02T14:01:52.531Z,12.75
2023-03-02T14:04:23.200Z,10.15
2023-03-02T14:06:51.038Z,11.68
2023-03-02T14:09:18.314Z,9.10
2023-03-02T14:11:46.567Z,10.95
2023-03-02T14:14:15.226Z,10.85
2023-03-02T14:16:42.427Z,9.63
2023-03-02T14:19:11.213Z,11.25
2023-03-02T14:21:38.426Z,13.75
2023-03-02T14:24:05.781Z,12.00
2023-03-02T14:26:35.933Z,12.18
2023-03-02T14:29:26.640Z,13.95
2023-03-02T14:31:57.311Z,55.63
2023-03-02T14:34:24.517Z,23.65
2023-03-02T14:36:53.522Z,22.92
2023-03-02T14:39:20.923Z,14.68
2023-03-02T14:41:53.753Z,13.85
2023-03-02T14:44:21.618Z,19.35
2023-03-02T14:46:48.899Z,18.48
2023-03-02T14:49:16.102Z,14.63
2023-03-02T14:51:43.836Z,16.08
2023-03-02T14:54:13.558Z,18.33
2023-03-02T14:56:40.822Z,17.33
2023-03-02T14:59:10.083Z,18.80
2023-03-02T15:01:37.410Z,14.30
2023-03-02T15:04:04.740Z,18.33
2023-03-02T15:06:32.878Z,144.32
2023-03-02T15:09:00.609Z,132.50
2023-03-02T15:11:28.143Z,103.15
2023-03-02T15:13:55.494Z,173.13
2023-03-02T15:16:22.810Z,87.45
2023-03-02T15:18:50.465Z,104.82
2023-03-02T15:21:18.814Z,111.15
2023-03-02T15:23:46.083Z,31.92
2023-03-02T15:26:13.386Z,34.10
2023-03-02T15:28:40.748Z,51.45
2023-03-02T15:31:08.890Z,47.72
2023-03-02T15:33:36.143Z,56.45
2023-03-02T15:36:06.258Z,40.50
2023-03-02T15:38:33.827Z,29.90
2023-03-02T15:41:04.778Z,24.55
2023-03-02T15:43:32.071Z,21.17
2023-03-02T15:45:59.343Z,19.70
2023-03-02T15:48:26.563Z,22.15
2023-03-02T15:51:00.049Z,20.42
2023-03-02T15:53:27.686Z,19.27
2023-03-02T15:55:54.982Z,18.90
2023-03-02T15:58:23.460Z,19.65
2023-03-02T16:00:50.993Z,24.88
2023-03-02T16:03:19.747Z,25.23
2023-03-02T16:05:47.080Z,28.02
2023-03-02T16:08:14.370Z,25.48
2023-03-02T16:10:44.655Z,22.08
2023-03-02T16:13:15.575Z,24.60
2023-03-02T16:15:42.816Z,28.88
2023-03-02T16:18:11.691Z,38.80
2023-03-02T16:20:39.268Z,40.47
2023-03-02T16:23:07.724Z,51.67
2023-03-02T16:25:39.853Z,53.28
2023-03-02T16:28:10.605Z,61.00
2023-03-02T16:30:37.870Z,61.70
2023-03-02T16:33:05.823Z,66.30
2023-03-02T16:35:33.361Z,66.38
2023-03-02T16:38:00.674Z,66.20
2023-03-02T16:40:27.921Z,58.03
2023-03-02T16:42:55.143Z,55.50
2023-03-02T16:45:22.534Z,53.87
2023-03-02T16:47:49.753Z,51.40
2023-03-02T16:50:17.146Z,52.77
2023-03-02T16:52:44.749Z,58.90
2023-03-02T16:55:13.481Z,66.43
2023-03-02T16:57:40.827Z,65.95
2023-03-02T17:00:08.592Z,67.77
2023-03-02T17:02:35.850Z,67.80
2023-03-02T17:05:03.030Z,63.57
2023-03-02T17:07:30.218Z,59.70
2023-03-02T17:09:57.444Z,59.07
2023-03-02T17:12:24.632Z,58.33
2023-03-02T17:14:51.800Z,57.17
2023-03-02T17:17:19.035Z,55.43
2023-03-02T17:19:46.292Z,56.17
2023-03-02T17:22:13.497Z,55.07
2023-03-02T17:24:41.330Z,63.13
2023-03-02T17:27:19.087Z,66.83
2023-03-02T17:29:51.364Z,65.83
2023-03-02T17:32:18.583Z,65.63
2023-03-02T17:34:45.823Z,64.07
2023-03-02T17:37:13.043Z,62.77
2023-03-02T17:39:40.399Z,65.33
2023-03-02T17:42:07.576Z,64.73
2023-03-02T17:44:34.881Z,74.73
2023-03-02T17:47:06.714Z,79.20
2023-03-02T17:49:33.981Z,76.40
2023-03-02T17:52:01.213Z,74.27
2023-03-02T17:54:28.384Z,69.30
2023-03-02T17:56:55.558Z,71.20
2023-03-02T17:59:22.786Z,70.93
2023-03-02T18:01:49.993Z,80.87
2023-03-02T18:04:17.220Z,87.17
2023-03-02T18:06:44.473Z,78.37
2023-03-02T18:09:11.695Z,66.10
2023-03-02T18:11:41.368Z,61.33
2023-03-02T18:14:08.836Z,55.17
2023-03-02T18:16:36.617Z,54.77
2023-03-02T18:19:03.842Z,54.43
2023-03-02T18:21:31.284Z,58.63
2023-03-02T18:23:58.624Z,63.17
2023-03-02T18:26:25.850Z,72.17
2023-03-02T18:28:53.065Z,82.70
2023-03-02T18:31:20.359Z,70.63
2023-03-02T18:33:47.652Z,70.90
2023-03-02T18:36:15.293Z,53.83
2023-03-02T18:38:42.589Z,63.23
2023-03-02T18:41:09.993Z,70.37
2023-03-02T18:43:38.764Z,65.23
2023-03-02T18:46:06.171Z,69.13
2023-03-02T18:48:33.472Z,78.03
2023-03-02T18:51:00.686Z,82.70
2023-03-02T18:53:27.888Z,79.13
2023-03-02T18:55:55.754Z,73.03
2023-03-02T18:58:24.983Z,81.83
2023-03-02T19:00:53.431Z,86.73
2023-03-02T19:03:20.839Z,84.73
2023-03-02T19:05:48.130Z,81.43
2023-03-02T19:08:15.340Z,67.90
2023-03-02T19:10:42.614Z,67.47
2023-03-02T19:13:11.687Z,60.53
2023-03-02T19:15:42.248Z,61.43
2023-03-02T19:18:09.772Z,58.87
2023-03-02T19:20:37.048Z,73.47
2023-03-02T19:23:04.232Z,79.77
2023-03-02T19:25:31.428Z,99.47
2023-03-02T19:27:58.642Z,83.67
2023-03-02T19:30:26.443Z,92.80
2023-03-02T19:32:54.842Z,90.23
2023-03-02T19:35:22.813Z,97.93
2023-03-02T19:37:50.054Z,90.30
2023-03-02T19:40:17.829Z,81.40
2023-03-02T19:42:45.540Z,80.67
2023-03-02T19:45:14.649Z,87.33
2023-03-02T19:47:41.874Z,89.30
2023-03-02T19:50:09.459Z,80.37
2023-03-02T19:52:37.456Z,84.07
2023-03-02T19:55:05.713Z,81.93
2023-03-02T19:57:33.003Z,83.43
2023-03-02T20:00:00.198Z,86.10
2023-03-02T20:02:27.418Z,85.33
2023-03-02T20:04:54.671Z,78.83
2023-03-02T20:07:21.862Z,75.63
2023-03-02T20:09:49.046Z,76.23
2023-03-02T20:12:16.314Z,74.07
2023-03-02T20:14:48.634Z,72.43
2023-03-02T20:17:19.700Z,67.43
2023-03-02T20:19:47.246Z,74.17
2023-03-02T20:22:14.605Z,76.03
2023-03-02T20:24:41.867Z,77.23
2023-03-02T20:27:09.187Z,68.30
2023-03-02T20:29:36.702Z,74.60
2023-03-02T20:32:04.731Z,74.27
2023-03-02T20:34:31.854Z,77.33
2023-03-02T20:36:59.398Z,80.40
2023-03-02T20:39:27.828Z,71.50
2023-03-02T20:41:55.281Z,73.33
2023-03-02T20:44:22.600Z,68.43
2023-03-02T20:46:51.517Z,70.83
2023-03-02T20:49:18.852Z,79.17
2023-03-02T20:51:49.278Z,91.43
2023-03-02T20:54:17.024Z,90.20
2023-03-02T20:56:44.609Z,85.20
2023-03-02T20:59:11.756Z,78.50
2023-03-02T21:01:38.944Z,78.13
2023-03-02T21:04:06.106Z,61.00
2023-03-02T21:06:36.055Z,80.10
2023-03-02T21:09:03.549Z,83.00
2023-03-02T21:11:30.672Z,88.70
2023-03-02T21:13:59.324Z,88.40
2023-03-02T21:16:27.511Z,88.07
2023-03-02T21:18:57.654Z,79.73
2023-03-02T21:21:40.379Z,75.77
2023-03-02T21:24:08.850Z,79.10
2023-03-02T21:26:36.868Z,73.93
2023-03-02T21:29:05.220Z,83.67
2023-03-02T21:31:32.643Z,86.10
2023-03-02T21:34:00.722Z,80.67
2023-03-02T21:36:27.999Z,83.53
2023-03-02T21:38:55.289Z,84.63
2023-03-02T21:41:22.496Z,85.17
2023-03-02T21:43:49.853Z,76.93
2023-03-02T21:46:18.097Z,67.93
2023-03-02T21:48:45.610Z,73.50
2023-03-02T21:51:12.958Z,92.67
2023-03-02T21:53:40.305Z,98.60
2023-03-02T21:56:07.759Z,93.23
2023-03-02T21:58:34.991Z,96.73
2023-03-02T22:01:02.195Z,80.47
2023-03-02T22:03:29.314Z,82.10
2023-03-02T22:05:56.494Z,78.83
2023-03-02T22:08:23.658Z,71.33
2023-03-02T22:10:51.104Z,67.60
2023-03-02T22:13:24.980Z,61.20
2023-03-02T22:15:56.874Z,62.07
2023-03-02T22:18:26.987Z,58.27
2023-03-02T22:20:54.125Z,57.53
2023-03-02T22:23:22.488Z,63.77
2023-03-02T22:25:50.350Z,64.30
2023-03-02T22:28:21.299Z,60.00
2023-03-02T22:30:48.957Z,60.10
2023-03-02T22:33:23.036Z,56.30
2023-03-02T22:35:50.834Z,61.37
2023-03-02T22:38:23.966Z,74.47
2023-03-02T22:40:51.308Z,76.60
2023-03-02T22:43:31.630Z,74.80
2023-03-02T22:46:20.226Z,67.30
2023-03-02T22:48:47.913Z,63.40
2023-03-02T22:51:15.057Z,62.80
2023-03-02T22:53:49.095Z,63.17
2023-03-02T22:56:37.245Z,65.23
2023-03-02T22:59:15.298Z,64.10
2023-03-02T23:01:43.253Z,65.03
2023-03-02T23:04:33.841Z,71.27
2023-03-02T23:07:01.239Z,71.50
2023-03-02T23:09:29.224Z,71.87
2023-03-02T23:12:00.356Z,69.87
2023-03-02T23:14:35.572Z,68.73
2023-03-02T23:17:06.025Z,65.27
2023-03-02T23:19:33.154Z,69.93
2023-03-02T23:22:00.272Z,67.80
2023-03-02T23:24:27.573Z,64.60
2023-03-02T23:26:54.732Z,59.07
2023-03-02T23:29:21.997Z,65.70
2023-03-02T23:31:49.403Z,67.93
2023-03-02T23:34:16.628Z,63.20
2023-03-02T23:36:43.799Z,60.33
2023-03-02T23:39:11.081Z,55.43
2023-03-02T23:41:38.853Z,61.30
2023-03-02T23:44:06.409Z,66.17
2023-03-02T23:46:33.685Z,65.83
2023-03-02T23:49:01.187Z,67.13
2023-03-02T23:51:28.299Z,60.67
2023-03-02T23:53:55.530Z,60.07
2023-03-02T23:56:22.830Z,55.63
2023-03-02T23:58:50.092Z,50.23
